Time,TemperatureF,DewpointF,PressureIn,WindDirection,WindDirectionDegrees,WindSpeedMPH,WindSpeedGustMPH,Humidity,HourlyPrecipIn,Conditions,Clouds,dailyrainin,SoftwareType,DateUTC
2013-11-03 00:02:00,-999.0,-99.9,29.73,NNE,28,0.0,1.0,-999,-99.99,,,-99.99,,2013-11-03 04:02:00,
2013-11-03 00:13:00,47.0,42.0,29.73,NNE,28,0.0,1.0,82,0.00,,,0.00,,2013-11-03 04:13:00,
2013-11-03 00:23:00,47.0,42.0,29.73,NNE,28,0.0,0.0,83,0.00,,,0.00,,2013-11-03 04:23:00,
2013-11-03 00:44:00,46.0,41.0,29.74,NNE,28,0.0,0.0,83,0.00,,,0.00,,2013-11-03 04:44:00,
2013-11-03 00:52:00,46.0,41.0,29.74,NNE,28,0.0,0.0,84,0.00,,,0.00,,2013-11-03 04:52:00,
2013-11-03 01:13:00,46.0,42.0,29.74,NNE,28,0.0,0.0,85,0.00,,,0.00,,2013-11-03 05:13:00,
2013-11-03 01:23:00,45.0,41.0,29.75,NNE,28,0.0,0.0,85,0.00,,,0.00,,2013-11-03 05:23:00,
2013-11-03 01:43:00,45.0,41.0,29.76,NNE,28,0.0,0.0,86,0.00,,,0.00,,2013-11-03 05:43:00,
2013-11-03 01:53:00,45.0,41.0,29.76,NNE,28,0.0,0.0,87,0.00,,,0.00,,2013-11-03 05:53:00,
2013-11-03 01:12:00,44.0,40.0,29.77,NNE,28,0.0,0.0,87,0.00,,,0.00,,2013-11-03 06:12:00,
2013-11-03 01:23:00,44.0,41.0,29.78,North,355,1.0,5.0,88,0.00,,,0.00,,2013-11-03 06:23:00,
2013-11-03 01:43:00,44.0,41.0,29.78,NE,47,0.0,9.0,89,0.00,,,0.00,,2013-11-03 06:43:00,
2013-11-03 01:53:00,44.0,40.0,29.79,North,355,0.0,7.0,87,0.00,,,0.00,,2013-11-03 06:53:00,
2013-11-03 02:11:00,44.0,40.0,29.80,NNW,344,0.0,6.0,85,0.00,,,0.00,,2013-11-03 07:11:00,
2013-11-03 02:22:00,43.0,38.0,29.80,NE,51,0.0,11.0,83,0.00,,,0.00,,2013-11-03 07:22:00,
2013-11-03 02:42:00,43.0,38.0,29.81,North,360,0.0,9.0,82,0.00,,,0.00,,2013-11-03 07:42:00,
2013-11-03 02:52:00,42.0,37.0,29.82,NNW,344,4.0,9.0,83,0.00,,,0.00,,2013-11-03 07:52:00,
2013-11-03 03:11:00,41.0,37.0,29.83,NNW,348,1.0,9.0,84,0.00,,,0.00,,2013-11-03 08:11:00,
2013-11-03 03:21:00,41.0,36.0,29.84,North,350,0.0,7.0,83,0.00,,,0.00,,2013-11-03 08:21:00,
2013-11-03 03:42:00,41.0,36.0,29.85,North,360,0.0,3.0,83,0.00,,,0.00,,2013-11-03 08:42:00,
2013-11-03 03:52:00,40.0,35.0,29.86,ENE,69,0.0,6.0,82,0.00,,,0.00,,2013-11-03 08:52:00,
2013-11-03 04:12:00,40.0,35.0,29.87,NW,322,1.0,7.0,82,0.00,,,0.00,,2013-11-03 09:12:00,
2013-11-03 04:22:00,40.0,35.0,29.88,North,5,0.0,5.0,82,0.00,,,0.00,,2013-11-03 09:22:00,
2013-11-03 04:53:00,40.0,35.0,29.89,North,360,1.0,5.0,81,0.00,,,0.00,,2013-11-03 09:53:00,
2013-11-03 05:23:00,40.0,34.0,29.91,NNW,340,1.0,9.0,80,0.00,,,0.00,,2013-11-03 10:23:00,
2013-11-03 05:42:00,40.0,34.0,29.92,NNW,343,2.0,7.0,80,0.00,,,0.00,,2013-11-03 10:42:00,
2013-11-03 05:53:00,40.0,34.0,29.92,ENE,76,0.0,11.0,80,0.00,,,0.00,,2013-11-03 10:53:00,
2013-11-03 06:22:00,39.0,33.0,29.94,NNE,32,0.0,7.0,79,0.00,,,0.00,,2013-11-03 11:22:00,
2013-11-03 06:43:00,39.0,33.0,29.95,NNE,23,1.0,6.0,79,0.00,,,0.00,,2013-11-03 11:43:00,
2013-11-03 06:52:00,39.0,33.0,29.96,North,350,0.0,5.0,79,0.00,,,0.00,,2013-11-03 11:52:00,
2013-11-03 07:12:00,38.0,31.0,29.98,NNW,342,2.0,12.0,77,0.00,,,0.00,,2013-11-03 12:12:00,
2013-11-03 07:22:00,38.0,31.0,29.99,NNW,345,1.0,9.0,76,0.00,,,0.00,,2013-11-03 12:22:00,
2013-11-03 07:42:00,38.0,31.0,30.01,NE,42,0.0,3.0,75,0.00,,,0.00,,2013-11-03 12:42:00,
2013-11-03 07:52:00,38.0,30.0,30.02,NNE,24,1.0,9.0,74,0.00,,,0.00,,2013-11-03 12:52:00,
2013-11-03 08:12:00,38.0,30.0,30.03,North,5,0.0,8.0,74,0.00,,,0.00,,2013-11-03 13:12:00,
2013-11-03 08:22:00,38.0,30.0,30.04,North,9,0.0,2.0,74,0.00,,,0.00,,2013-11-03 13:22:00,
2013-11-03 08:42:00,38.0,30.0,30.05,NE,34,2.0,7.0,72,0.00,,,0.00,,2013-11-03 13:42:00,
2013-11-03 08:52:00,38.0,31.0,30.06,NNE,14,0.0,6.0,76,0.00,,,0.00,,2013-11-03 13:52:00,
2013-11-03 09:12:00,38.0,29.0,30.06,NNE,26,1.0,8.0,71,0.00,,,0.00,,2013-11-03 14:12:00,
2013-11-03 09:22:00,39.0,30.0,30.06,ENE,69,1.0,8.0,70,0.00,,,0.00,,2013-11-03 14:22:00,
2013-11-03 09:42:00,40.0,31.0,30.07,North,355,0.0,9.0,70,0.00,,,0.00,,2013-11-03 14:42:00,
2013-11-03 09:52:00,41.0,31.0,30.07,NNW,338,0.0,9.0,68,0.00,,,0.00,,2013-11-03 14:52:00,
2013-11-03 10:11:00,41.0,31.0,30.07,North,360,0.0,9.0,68,0.00,,,0.00,,2013-11-03 15:11:00,
2013-11-03 10:22:00,41.0,31.0,30.09,NNE,30,0.0,8.0,67,0.00,,,0.00,,2013-11-03 15:22:00,
2013-11-03 10:43:00,41.0,31.0,30.09,NNE,24,1.0,12.0,66,0.00,,,0.00,,2013-11-03 15:43:00,
2013-11-03 10:53:00,40.0,30.0,30.10,NNE,33,1.0,16.0,67,0.00,,,0.00,,2013-11-03 15:53:00,
2013-11-03 11:23:00,40.0,30.0,30.11,NNE,19,4.0,15.0,67,0.00,,,0.00,,2013-11-03 16:23:00,
2013-11-03 11:43:00,41.0,31.0,30.12,North,355,1.0,9.0,67,0.00,,,0.00,,2013-11-03 16:43:00,
2013-11-03 11:53:00,40.0,30.0,30.12,NNW,341,4.0,11.0,67,0.00,,,0.00,,2013-11-03 16:53:00,
2013-11-03 12:13:00,41.0,31.0,30.12,NNE,19,3.0,10.0,66,0.00,,,0.00,,2013-11-03 17:13:00,
2013-11-03 12:23:00,41.0,31.0,30.11,NNE,26,2.0,10.0,66,0.00,,,0.00,,2013-11-03 17:23:00,
2013-11-03 12:43:00,41.0,30.0,30.11,North,360,0.0,8.0,65,0.00,,,0.00,,2013-11-03 17:43:00,
2013-11-03 12:53:00,42.0,31.0,30.11,NNE,15,2.0,12.0,65,0.00,,,0.00,,2013-11-03 17:53:00,
2013-11-03 13:42:00,45.0,32.0,30.12,NNW,336,3.0,11.0,61,0.00,,,0.00,,2013-11-03 18:42:00,
2013-11-03 13:52:00,44.0,31.0,30.13,North,350,1.0,14.0,60,0.00,,,0.00,,2013-11-03 18:52:00,
2013-11-03 14:11:00,44.0,31.0,30.14,NNE,26,1.0,7.0,60,0.00,,,0.00,,2013-11-03 19:11:00,
2013-11-03 14:22:00,43.0,30.0,30.14,North,360,0.0,8.0,61,0.00,,,0.00,,2013-11-03 19:22:00,
2013-11-03 14:42:00,42.0,30.0,30.15,NNE,29,0.0,7.0,62,0.00,,,0.00,,2013-11-03 19:42:00,
2013-11-03 14:53:00,41.0,30.0,30.16,NNW,344,1.0,10.0,64,0.00,,,0.00,,2013-11-03 19:53:00,
2013-11-03 15:22:00,40.0,30.0,30.18,NNE,20,0.0,7.0,66,0.00,,,0.00,,2013-11-03 20:22:00,
2013-11-03 15:42:00,40.0,30.0,30.19,North,360,0.0,8.0,67,0.00,,,0.00,,2013-11-03 20:42:00,
2013-11-03 15:52:00,40.0,30.0,30.19,NNE,33,0.0,8.0,68,0.00,,,0.00,,2013-11-03 20:52:00,
2013-11-03 16:12:00,39.0,29.0,30.20,NE,40,0.0,9.0,68,0.00,,,0.00,,2013-11-03 21:12:00,
2013-11-03 16:22:00,39.0,29.0,30.20,NE,40,0.0,9.0,68,0.00,,,0.00,,2013-11-03 21:22:00,
2013-11-03 16:43:00,39.0,29.0,30.21,NNW,335,0.0,11.0,67,0.00,,,0.00,,2013-11-03 21:43:00,
2013-11-03 16:54:00,39.0,29.0,30.22,North,355,0.0,10.0,67,0.00,,,0.00,,2013-11-03 21:54:00,
2013-11-03 17:13:00,38.0,28.0,30.22,NNE,14,0.0,4.0,68,0.00,,,0.00,,2013-11-03 22:13:00,
2013-11-03 17:22:00,38.0,28.0,30.23,NNW,348,0.0,6.0,68,0.00,,,0.00,,2013-11-03 22:22:00,
2013-11-03 17:43:00,38.0,28.0,30.24,NNE,13,2.0,10.0,66,0.00,,,0.00,,2013-11-03 22:43:00,
2013-11-03 17:52:00,38.0,27.0,30.25,NNE,13,2.0,9.0,65,0.00,,,0.00,,2013-11-03 22:52:00,
2013-11-03 18:23:00,37.0,27.0,30.26,NNW,332,0.0,4.0,66,0.00,,,0.00,,2013-11-03 23:23:00,
2013-11-03 18:42:00,36.0,26.0,30.27,North,350,0.0,3.0,67,0.00,,,0.00,,2013-11-03 23:42:00,
2013-11-03 18:53:00,36.0,26.0,30.28,North,350,0.0,1.0,67,0.00,,,0.00,,2013-11-03 23:53:00,
2013-11-03 19:22:00,34.0,25.0,30.30,North,350,0.0,0.0,70,0.00,,,0.00,,2013-11-04 00:22:00,
2013-11-03 19:42:00,34.0,26.0,30.30,North,350,0.0,0.0,71,0.00,,,0.00,,2013-11-04 00:42:00,
2013-11-03 19:52:00,33.0,25.0,30.31,North,350,0.0,0.0,72,0.00,,,0.00,,2013-11-04 00:52:00,
2013-11-03 20:22:00,32.0,25.0,30.31,North,350,0.0,0.0,76,0.00,,,0.00,,2013-11-04 01:22:00,
2013-11-03 20:52:00,31.0,24.0,30.33,North,350,0.0,0.0,76,0.00,,,0.00,,2013-11-04 01:52:00,
2013-11-03 21:12:00,31.0,24.0,30.34,North,350,0.0,1.0,75,0.00,,,0.00,,2013-11-04 02:12:00,
2013-11-03 21:22:00,32.0,25.0,30.35,North,350,0.0,1.0,74,0.00,,,0.00,,2013-11-04 02:22:00,
2013-11-03 21:42:00,31.0,23.0,30.35,North,350,0.0,0.0,73,0.00,,,0.00,,2013-11-04 02:42:00,
2013-11-03 21:52:00,31.0,22.0,30.37,East,83,0.0,2.0,69,0.00,,,0.00,,2013-11-04 02:52:00,
2013-11-03 22:12:00,31.0,21.0,30.37,East,82,0.0,0.0,66,0.00,,,0.00,,2013-11-04 03:12:00,
2013-11-03 22:22:00,31.0,20.0,30.38,ENE,68,0.0,1.0,64,0.00,,,0.00,,2013-11-04 03:22:00,
2013-11-03 22:44:00,31.0,20.0,30.38,ENE,60,0.0,1.0,62,0.00,,,0.00,,2013-11-04 03:44:00,
2013-11-03 22:54:00,31.0,19.0,30.39,ENE,60,0.0,0.0,60,0.00,,,0.00,,2013-11-04 03:54:00,
2013-11-03 23:24:00,31.0,19.0,30.39,NNE,33,0.0,1.0,60,0.00,,,0.00,,2013-11-04 04:24:00,
2013-11-03 23:34:00,31.0,19.0,30.39,NNE,33,0.0,1.0,60,0.00,,,0.00,,2013-11-04 04:34:00,
2013-11-03 23:43:00,31.0,19.0,30.39,NNE,33,0.0,1.0,60,0.00,,,0.00,,2013-11-04 04:43:00,
2013-11-03 23:52:00,30.0,18.0,30.41,NNE,33,0.0,1.0,60,0.00,,,0.00,,2013-11-04 04:52:00,